sensor_id;sensor_type;location;lat;lon;timestamp;P1;durP1;ratioP1;P2;durP2;ratioP2
66800;SDS011;53703;50.326;19.122;2023-10-31T00:01:18;33.10;;;16.30;;
66800;SDS011;53703;50.326;19.122;2023-10-31T00:03:53;38.00;;;16.80;;
66800;SDS011;53703;50.326;19.122;2023-10-31T00:06:26;35.40;;;18.00;;
66800;SDS011;53703;50.326;19.122;2023-10-31T00:08:59;32.90;;;17.20;;
66800;SDS011;53703;50.326;19.122;2023-10-31T00:11:33;35.20;;;16.80;;
66800;SDS011;53703;50.326;19.122;2023-10-31T00:14:06;33.80;;;16.80;;
66800;SDS011;53703;50.326;19.122;2023-10-31T00:17:00;34.90;;;16.70;;
66800;SDS011;53703;50.326;19.122;2023-10-31T00:19:33;32.40;;;16.60;;
66800;SDS011;53703;50.326;19.122;2023-10-31T00:22:07;30.00;;;16.50;;
66800;SDS011;53703;50.326;19.122;2023-10-31T00:24:40;34.50;;;15.90;;
66800;SDS011;53703;50.326;19.122;2023-10-31T00:27:14;30.60;;;15.90;;
66800;SDS011;53703;50.326;19.122;2023-10-31T00:29:47;32.30;;;16.30;;
66800;SDS011;53703;50.326;19.122;2023-10-31T00:32:21;27.80;;;15.10;;
66800;SDS011;53703;50.326;19.122;2023-10-31T00:34:56;32.30;;;16.00;;
66800;SDS011;53703;50.326;19.122;2023-10-31T00:37:30;33.80;;;16.60;;
66800;SDS011;53703;50.326;19.122;2023-10-31T00:40:04;34.60;;;17.00;;
66800;SDS011;53703;50.326;19.122;2023-10-31T00:42:41;28.70;;;15.80;;
66800;SDS011;53703;50.326;19.122;2023-10-31T00:45:15;32.70;;;15.90;;
66800;SDS011;53703;50.326;19.122;2023-10-31T00:47:48;34.30;;;16.10;;
66800;SDS011;53703;50.326;19.122;2023-10-31T00:50:23;32.30;;;15.90;;
66800;SDS011;53703;50.326;19.122;2023-10-31T00:52:56;29.20;;;15.40;;
66800;SDS011;53703;50.326;19.122;2023-10-31T00:55:30;32.40;;;16.00;;
66800;SDS011;53703;50.326;19.122;2023-10-31T00:58:04;32.20;;;15.50;;
66800;SDS011;53703;50.326;19.122;2023-10-31T01:01:03;30.90;;;14.90;;
66800;SDS011;53703;50.326;19.122;2023-10-31T01:03:37;25.90;;;14.40;;
66800;SDS011;53703;50.326;19.122;2023-10-31T01:09:22;26.60;;;14.10;;
66800;SDS011;53703;50.326;19.122;2023-10-31T01:11:59;27.60;;;14.20;;
66800;SDS011;53703;50.326;19.122;2023-10-31T01:14:32;29.50;;;14.80;;
66800;SDS011;53703;50.326;19.122;2023-10-31T01:17:06;29.20;;;14.60;;
66800;SDS011;53703;50.326;19.122;2023-10-31T01:19:40;27.90;;;14.30;;
66800;SDS011;53703;50.326;19.122;2023-10-31T01:22:13;30.80;;;14.40;;
66800;SDS011;53703;50.326;19.122;2023-10-31T01:24:47;30.20;;;14.70;;
66800;SDS011;53703;50.326;19.122;2023-10-31T01:27:20;26.70;;;13.10;;
66800;SDS011;53703;50.326;19.122;2023-10-31T01:29:54;32.30;;;15.20;;
66800;SDS011;53703;50.326;19.122;2023-10-31T01:32:27;29.80;;;14.20;;
66800;SDS011;53703;50.326;19.122;2023-10-31T01:35:01;27.80;;;14.00;;
66800;SDS011;53703;50.326;19.122;2023-10-31T01:37:34;30.00;;;14.40;;
66800;SDS011;53703;50.326;19.122;2023-10-31T01:40:11;28.20;;;13.70;;
66800;SDS011;53703;50.326;19.122;2023-10-31T01:42:45;28.50;;;13.80;;
66800;SDS011;53703;50.326;19.122;2023-10-31T01:45:19;31.80;;;14.10;;
66800;SDS011;53703;50.326;19.122;2023-10-31T01:47:52;28.70;;;13.50;;
66800;SDS011;53703;50.326;19.122;2023-10-31T01:50:26;28.40;;;13.60;;
66800;SDS011;53703;50.326;19.122;2023-10-31T01:53:00;27.40;;;13.60;;
66800;SDS011;53703;50.326;19.122;2023-10-31T01:55:34;30.10;;;15.00;;
66800;SDS011;53703;50.326;19.122;2023-10-31T01:58:07;27.00;;;12.90;;
66800;SDS011;53703;50.326;19.122;2023-10-31T02:00:42;32.30;;;13.50;;
66800;SDS011;53703;50.326;19.122;2023-10-31T02:03:16;26.70;;;13.20;;
66800;SDS011;53703;50.326;19.122;2023-10-31T02:05:51;25.00;;;12.40;;
66800;SDS011;53703;50.326;19.122;2023-10-31T02:08:25;28.10;;;12.80;;
66800;SDS011;53703;50.326;19.122;2023-10-31T02:10:59;25.00;;;13.40;;
66800;SDS011;53703;50.326;19.122;2023-10-31T02:13:34;30.00;;;13.20;;
66800;SDS011;53703;50.326;19.122;2023-10-31T02:16:09;25.30;;;12.20;;
66800;SDS011;53703;50.326;19.122;2023-10-31T02:18:42;24.80;;;12.40;;
66800;SDS011;53703;50.326;19.122;2023-10-31T02:21:16;22.10;;;11.70;;
66800;SDS011;53703;50.326;19.122;2023-10-31T02:23:59;23.60;;;12.60;;
66800;SDS011;53703;50.326;19.122;2023-10-31T02:26:34;23.80;;;12.20;;
66800;SDS011;53703;50.326;19.122;2023-10-31T02:29:08;23.20;;;12.30;;
66800;SDS011;53703;50.326;19.122;2023-10-31T02:31:41;24.00;;;11.90;;
66800;SDS011;53703;50.326;19.122;2023-10-31T02:34:15;23.80;;;13.10;;
66800;SDS011;53703;50.326;19.122;2023-10-31T02:36:48;23.00;;;11.80;;
66800;SDS011;53703;50.326;19.122;2023-10-31T02:39:22;24.60;;;12.40;;
66800;SDS011;53703;50.326;19.122;2023-10-31T02:41:55;23.20;;;11.70;;
66800;SDS011;53703;50.326;19.122;2023-10-31T02:44:29;21.20;;;11.60;;
66800;SDS011;53703;50.326;19.122;2023-10-31T02:47:02;21.90;;;11.70;;
66800;SDS011;53703;50.326;19.122;2023-10-31T02:49:36;23.70;;;12.20;;
66800;SDS011;53703;50.326;19.122;2023-10-31T02:52:10;22.90;;;11.30;;
66800;SDS011;53703;50.326;19.122;2023-10-31T02:54:43;20.80;;;11.10;;
66800;SDS011;53703;50.326;19.122;2023-10-31T02:57:17;24.20;;;11.10;;
66800;SDS011;53703;50.326;19.122;2023-10-31T02:59:50;25.80;;;11.90;;
66800;SDS011;53703;50.326;19.122;2023-10-31T03:02:24;22.10;;;11.10;;
66800;SDS011;53703;50.326;19.122;2023-10-31T03:04:57;20.80;;;11.00;;
66800;SDS011;53703;50.326;19.122;2023-10-31T03:07:31;21.30;;;10.70;;
66800;SDS011;53703;50.326;19.122;2023-10-31T03:10:06;22.30;;;10.90;;
66800;SDS011;53703;50.326;19.122;2023-10-31T03:12:40;22.50;;;11.00;;
66800;SDS011;53703;50.326;19.122;2023-10-31T03:15:14;22.80;;;10.70;;
66800;SDS011;53703;50.326;19.122;2023-10-31T03:17:47;21.90;;;10.40;;
66800;SDS011;53703;50.326;19.122;2023-10-31T03:20:21;21.30;;;11.50;;
66800;SDS011;53703;50.326;19.122;2023-10-31T03:22:54;21.50;;;10.50;;
66800;SDS011;53703;50.326;19.122;2023-10-31T03:25:27;23.00;;;10.60;;
66800;SDS011;53703;50.326;19.122;2023-10-31T03:28:01;18.90;;;10.00;;
66800;SDS011;53703;50.326;19.122;2023-10-31T03:30:35;18.30;;;10.30;;
66800;SDS011;53703;50.326;19.122;2023-10-31T03:33:09;20.60;;;11.00;;
66800;SDS011;53703;50.326;19.122;2023-10-31T03:35:42;20.60;;;10.00;;
66800;SDS011;53703;50.326;19.122;2023-10-31T03:38:16;21.50;;;10.30;;
66800;SDS011;53703;50.326;19.122;2023-10-31T03:40:50;20.20;;;10.50;;
66800;SDS011;53703;50.326;19.122;2023-10-31T03:43:23;19.00;;;10.40;;
66800;SDS011;53703;50.326;19.122;2023-10-31T03:45:57;21.40;;;10.10;;
66800;SDS011;53703;50.326;19.122;2023-10-31T03:48:31;18.00;;;9.60;;
66800;SDS011;53703;50.326;19.122;2023-10-31T03:51:05;21.40;;;9.90;;
66800;SDS011;53703;50.326;19.122;2023-10-31T03:53:39;20.00;;;9.50;;
66800;SDS011;53703;50.326;19.122;2023-10-31T03:56:12;18.30;;;9.50;;
66800;SDS011;53703;50.326;19.122;2023-10-31T03:58:46;18.40;;;9.80;;
66800;SDS011;53703;50.326;19.122;2023-10-31T04:01:20;18.40;;;9.80;;
66800;SDS011;53703;50.326;19.122;2023-10-31T04:03:53;17.00;;;9.60;;
66800;SDS011;53703;50.326;19.122;2023-10-31T04:06:27;17.20;;;9.10;;
66800;SDS011;53703;50.326;19.122;2023-10-31T04:09:01;19.00;;;9.10;;
66800;SDS011;53703;50.326;19.122;2023-10-31T04:11:34;15.90;;;8.70;;
66800;SDS011;53703;50.326;19.122;2023-10-31T04:14:09;18.80;;;9.50;;
66800;SDS011;53703;50.326;19.122;2023-10-31T04:16:42;16.80;;;9.40;;
66800;SDS011;53703;50.326;19.122;2023-10-31T04:19:17;22.90;;;9.50;;
66800;SDS011;53703;50.326;19.122;2023-10-31T04:21:51;18.40;;;10.00;;
66800;SDS011;53703;50.326;19.122;2023-10-31T04:24:24;16.10;;;9.10;;
66800;SDS011;53703;50.326;19.122;2023-10-31T04:26:58;18.10;;;9.20;;
66800;SDS011;53703;50.326;19.122;2023-10-31T04:29:31;17.40;;;8.80;;
66800;SDS011;53703;50.326;19.122;2023-10-31T04:32:06;19.60;;;8.70;;
66800;SDS011;53703;50.326;19.122;2023-10-31T04:38:15;17.90;;;9.10;;
66800;SDS011;53703;50.326;19.122;2023-10-31T04:40:49;17.40;;;8.90;;
66800;SDS011;53703;50.326;19.122;2023-10-31T04:43:22;16.10;;;8.20;;
66800;SDS011;53703;50.326;19.122;2023-10-31T04:45:56;16.20;;;8.90;;
66800;SDS011;53703;50.326;19.122;2023-10-31T04:48:29;16.80;;;8.40;;
66800;SDS011;53703;50.326;19.122;2023-10-31T04:51:03;16.70;;;8.10;;
66800;SDS011;53703;50.326;19.122;2023-10-31T04:53:37;17.80;;;8.10;;
66800;SDS011;53703;50.326;19.122;2023-10-31T04:56:14;16.10;;;8.40;;
66800;SDS011;53703;50.326;19.122;2023-10-31T04:58:48;15.40;;;7.80;;
66800;SDS011;53703;50.326;19.122;2023-10-31T05:01:22;16.90;;;7.80;;
66800;SDS011;53703;50.326;19.122;2023-10-31T05:03:56;16.80;;;8.00;;
66800;SDS011;53703;50.326;19.122;2023-10-31T05:06:42;14.60;;;7.80;;
66800;SDS011;53703;50.326;19.122;2023-10-31T05:09:16;14.80;;;8.20;;
66800;SDS011;53703;50.326;19.122;2023-10-31T05:11:51;12.10;;;6.80;;
66800;SDS011;53703;50.326;19.122;2023-10-31T05:14:24;14.50;;;7.30;;
66800;SDS011;53703;50.326;19.122;2023-10-31T05:16:58;15.00;;;7.90;;
66800;SDS011;53703;50.326;19.122;2023-10-31T05:19:31;15.40;;;7.90;;
66800;SDS011;53703;50.326;19.122;2023-10-31T05:22:05;16.00;;;7.70;;
66800;SDS011;53703;50.326;19.122;2023-10-31T05:24:38;12.00;;;6.80;;
66800;SDS011;53703;50.326;19.122;2023-10-31T05:27:12;16.30;;;8.30;;
66800;SDS011;53703;50.326;19.122;2023-10-31T05:29:45;14.60;;;7.70;;
66800;SDS011;53703;50.326;19.122;2023-10-31T05:32:19;12.90;;;7.00;;
66800;SDS011;53703;50.326;19.122;2023-10-31T05:34:52;12.10;;;6.80;;
66800;SDS011;53703;50.326;19.122;2023-10-31T05:37:29;14.20;;;6.60;;
66800;SDS011;53703;50.326;19.122;2023-10-31T05:40:03;16.70;;;6.80;;
66800;SDS011;53703;50.326;19.122;2023-10-31T05:42:39;13.50;;;7.40;;
66800;SDS011;53703;50.326;19.122;2023-10-31T05:45:13;13.90;;;6.90;;
66800;SDS011;53703;50.326;19.122;2023-10-31T05:47:46;15.60;;;7.10;;
66800;SDS011;53703;50.326;19.122;2023-10-31T05:50:20;13.60;;;6.90;;
66800;SDS011;53703;50.326;19.122;2023-10-31T05:52:54;11.90;;;6.70;;
66800;SDS011;53703;50.326;19.122;2023-10-31T05:55:27;14.30;;;6.70;;
66800;SDS011;53703;50.326;19.122;2023-10-31T05:58:01;13.60;;;6.70;;
66800;SDS011;53703;50.326;19.122;2023-10-31T06:00:34;13.00;;;6.80;;
66800;SDS011;53703;50.326;19.122;2023-10-31T06:03:09;12.20;;;6.60;;
66800;SDS011;53703;50.326;19.122;2023-10-31T06:05:42;15.20;;;6.20;;
66800;SDS011;53703;50.326;19.122;2023-10-31T06:08:16;14.10;;;6.20;;
66800;SDS011;53703;50.326;19.122;2023-10-31T06:10:50;14.20;;;6.40;;
66800;SDS011;53703;50.326;19.122;2023-10-31T06:13:24;12.00;;;6.10;;
66800;SDS011;53703;50.326;19.122;2023-10-31T06:15:57;13.40;;;6.40;;
66800;SDS011;53703;50.326;19.122;2023-10-31T06:18:32;11.00;;;5.50;;
66800;SDS011;53703;50.326;19.122;2023-10-31T06:21:06;12.90;;;6.20;;
66800;SDS011;53703;50.326;19.122;2023-10-31T06:23:40;13.10;;;6.10;;
66800;SDS011;53703;50.326;19.122;2023-10-31T06:26:16;15.80;;;5.80;;
66800;SDS011;53703;50.326;19.122;2023-10-31T06:28:50;9.20;;;4.90;;
66800;SDS011;53703;50.326;19.122;2023-10-31T06:31:43;10.00;;;5.60;;
66800;SDS011;53703;50.326;19.122;2023-10-31T06:34:18;9.80;;;5.20;;
66800;SDS011;53703;50.326;19.122;2023-10-31T06:36:51;11.40;;;5.10;;
66800;SDS011;53703;50.326;19.122;2023-10-31T06:39:25;9.90;;;5.10;;
66800;SDS011;53703;50.326;19.122;2023-10-31T06:41:59;12.30;;;5.20;;
66800;SDS011;53703;50.326;19.122;2023-10-31T06:44:33;10.00;;;5.10;;
66800;SDS011;53703;50.326;19.122;2023-10-31T06:47:06;10.50;;;4.80;;
66800;SDS011;53703;50.326;19.122;2023-10-31T06:49:40;9.20;;;5.00;;
66800;SDS011;53703;50.326;19.122;2023-10-31T06:52:13;10.30;;;5.40;;
66800;SDS011;53703;50.326;19.122;2023-10-31T06:54:47;11.10;;;5.50;;
66800;SDS011;53703;50.326;19.122;2023-10-31T06:57:20;9.80;;;5.20;;
66800;SDS011;53703;50.326;19.122;2023-10-31T06:59:54;10.30;;;5.10;;
66800;SDS011;53703;50.326;19.122;2023-10-31T07:02:27;8.30;;;4.20;;
66800;SDS011;53703;50.326;19.122;2023-10-31T07:05:01;8.70;;;4.60;;
66800;SDS011;53703;50.326;19.122;2023-10-31T07:07:35;8.50;;;4.50;;
66800;SDS011;53703;50.326;19.122;2023-10-31T07:10:09;8.90;;;4.60;;
66800;SDS011;53703;50.326;19.122;2023-10-31T07:12:42;8.90;;;4.30;;
66800;SDS011;53703;50.326;19.122;2023-10-31T07:15:17;8.00;;;4.60;;
66800;SDS011;53703;50.326;19.122;2023-10-31T07:17:51;10.10;;;4.70;;
66800;SDS011;53703;50.326;19.122;2023-10-31T07:20:25;8.40;;;4.40;;
66800;SDS011;53703;50.326;19.122;2023-10-31T07:22:59;11.40;;;4.70;;
66800;SDS011;53703;50.326;19.122;2023-10-31T07:25:33;8.20;;;4.40;;
66800;SDS011;53703;50.326;19.122;2023-10-31T07:28:06;7.00;;;4.00;;
66800;SDS011;53703;50.326;19.122;2023-10-31T07:30:40;9.60;;;4.40;;
66800;SDS011;53703;50.326;19.122;2023-10-31T07:33:13;8.50;;;4.30;;
66800;SDS011;53703;50.326;19.122;2023-10-31T07:35:47;7.10;;;4.00;;
66800;SDS011;53703;50.326;19.122;2023-10-31T07:38:21;7.10;;;4.20;;
66800;SDS011;53703;50.326;19.122;2023-10-31T07:40:54;6.90;;;3.80;;
66800;SDS011;53703;50.326;19.122;2023-10-31T07:43:28;10.10;;;4.00;;
66800;SDS011;53703;50.326;19.122;2023-10-31T07:46:01;8.60;;;4.40;;
66800;SDS011;53703;50.326;19.122;2023-10-31T07:48:35;7.80;;;4.50;;
66800;SDS011;53703;50.326;19.122;2023-10-31T07:51:09;8.60;;;4.20;;
66800;SDS011;53703;50.326;19.122;2023-10-31T07:53:43;9.30;;;4.60;;
66800;SDS011;53703;50.326;19.122;2023-10-31T07:58:54;10.30;;;4.30;;
66800;SDS011;53703;50.326;19.122;2023-10-31T08:01:28;9.30;;;4.10;;
66800;SDS011;53703;50.326;19.122;2023-10-31T08:04:01;7.40;;;3.50;;
66800;SDS011;53703;50.326;19.122;2023-10-31T08:06:35;8.90;;;4.10;;
66800;SDS011;53703;50.326;19.122;2023-10-31T08:09:09;7.50;;;3.80;;
66800;SDS011;53703;50.326;19.122;2023-10-31T08:11:43;6.10;;;3.40;;
66800;SDS011;53703;50.326;19.122;2023-10-31T08:14:16;12.40;;;3.90;;
66800;SDS011;53703;50.326;19.122;2023-10-31T08:16:50;12.90;;;4.40;;
66800;SDS011;53703;50.326;19.122;2023-10-31T08:19:23;7.40;;;3.40;;
66800;SDS011;53703;50.326;19.122;2023-10-31T08:21:57;7.70;;;4.10;;
66800;SDS011;53703;50.326;19.122;2023-10-31T08:24:33;6.90;;;3.60;;
66800;SDS011;53703;50.326;19.122;2023-10-31T08:27:07;5.90;;;3.50;;
66800;SDS011;53703;50.326;19.122;2023-10-31T08:29:41;6.80;;;3.50;;
66800;SDS011;53703;50.326;19.122;2023-10-31T08:32:14;7.50;;;3.80;;
66800;SDS011;53703;50.326;19.122;2023-10-31T08:34:48;7.70;;;3.30;;
66800;SDS011;53703;50.326;19.122;2023-10-31T08:37:22;7.20;;;3.80;;
66800;SDS011;53703;50.326;19.122;2023-10-31T08:39:55;5.90;;;3.20;;
66800;SDS011;53703;50.326;19.122;2023-10-31T08:42:29;5.90;;;3.20;;
66800;SDS011;53703;50.326;19.122;2023-10-31T08:45:03;6.70;;;3.40;;
66800;SDS011;53703;50.326;19.122;2023-10-31T08:47:37;6.40;;;3.30;;
66800;SDS011;53703;50.326;19.122;2023-10-31T08:50:11;9.30;;;4.00;;
66800;SDS011;53703;50.326;19.122;2023-10-31T08:52:45;6.60;;;3.50;;
66800;SDS011;53703;50.326;19.122;2023-10-31T08:55:19;7.70;;;3.20;;
66800;SDS011;53703;50.326;19.122;2023-10-31T08:57:52;7.60;;;3.80;;
66800;SDS011;53703;50.326;19.122;2023-10-31T09:00:26;6.60;;;3.70;;
66800;SDS011;53703;50.326;19.122;2023-10-31T09:03:00;6.30;;;3.50;;
66800;SDS011;53703;50.326;19.122;2023-10-31T09:05:34;6.00;;;3.10;;
66800;SDS011;53703;50.326;19.122;2023-10-31T09:10:23;7.40;;;3.60;;
66800;SDS011;53703;50.326;19.122;2023-10-31T09:12:56;7.10;;;3.40;;
66800;SDS011;53703;50.326;19.122;2023-10-31T09:15:30;5.30;;;3.20;;
66800;SDS011;53703;50.326;19.122;2023-10-31T09:18:04;6.40;;;3.50;;
66800;SDS011;53703;50.326;19.122;2023-10-31T09:20:37;6.00;;;3.00;;
66800;SDS011;53703;50.326;19.122;2023-10-31T09:23:11;6.10;;;3.30;;
66800;SDS011;53703;50.326;19.122;2023-10-31T09:25:45;5.90;;;3.30;;
66800;SDS011;53703;50.326;19.122;2023-10-31T09:28:18;6.80;;;3.10;;
66800;SDS011;53703;50.326;19.122;2023-10-31T09:30:52;6.30;;;3.30;;
66800;SDS011;53703;50.326;19.122;2023-10-31T09:33:26;6.50;;;3.50;;
66800;SDS011;53703;50.326;19.122;2023-10-31T09:36:00;8.30;;;3.60;;
66800;SDS011;53703;50.326;19.122;2023-10-31T09:38:34;6.20;;;3.10;;
66800;SDS011;53703;50.326;19.122;2023-10-31T09:41:07;6.60;;;3.10;;
66800;SDS011;53703;50.326;19.122;2023-10-31T09:43:41;5.90;;;3.00;;
66800;SDS011;53703;50.326;19.122;2023-10-31T09:46:15;6.30;;;3.40;;
66800;SDS011;53703;50.326;19.122;2023-10-31T09:48:49;5.80;;;3.30;;
66800;SDS011;53703;50.326;19.122;2023-10-31T09:51:22;5.20;;;2.90;;
66800;SDS011;53703;50.326;19.122;2023-10-31T09:53:56;7.70;;;3.50;;
66800;SDS011;53703;50.326;19.122;2023-10-31T09:56:31;7.50;;;3.50;;
66800;SDS011;53703;50.326;19.122;2023-10-31T09:59:05;6.40;;;3.20;;
66800;SDS011;53703;50.326;19.122;2023-10-31T10:01:39;6.20;;;3.00;;
66800;SDS011;53703;50.326;19.122;2023-10-31T10:04:12;5.70;;;3.00;;
66800;SDS011;53703;50.326;19.122;2023-10-31T10:06:59;7.70;;;3.20;;
66800;SDS011;53703;50.326;19.122;2023-10-31T10:09:33;9.90;;;3.20;;
66800;SDS011;53703;50.326;19.122;2023-10-31T10:12:08;5.90;;;3.30;;
66800;SDS011;53703;50.326;19.122;2023-10-31T10:14:45;6.40;;;2.70;;
66800;SDS011;53703;50.326;19.122;2023-10-31T10:17:20;38.50;;;20.40;;
66800;SDS011;53703;50.326;19.122;2023-10-31T10:20:08;6.60;;;3.10;;
66800;SDS011;53703;50.326;19.122;2023-10-31T10:22:43;5.10;;;2.90;;
66800;SDS011;53703;50.326;19.122;2023-10-31T10:25:17;4.30;;;2.90;;
66800;SDS011;53703;50.326;19.122;2023-10-31T10:27:51;5.20;;;2.80;;
66800;SDS011;53703;50.326;19.122;2023-10-31T10:30:25;5.20;;;3.20;;
66800;SDS011;53703;50.326;19.122;2023-10-31T10:32:58;5.90;;;3.10;;
66800;SDS011;53703;50.326;19.122;2023-10-31T10:35:32;6.60;;;2.70;;
66800;SDS011;53703;50.326;19.122;2023-10-31T10:38:06;5.40;;;3.00;;
66800;SDS011;53703;50.326;19.122;2023-10-31T10:40:45;5.90;;;2.60;;
66800;SDS011;53703;50.326;19.122;2023-10-31T10:43:22;6.30;;;2.60;;
66800;SDS011;53703;50.326;19.122;2023-10-31T10:45:58;5.50;;;2.30;;
66800;SDS011;53703;50.326;19.122;2023-10-31T10:48:33;4.40;;;2.60;;
66800;SDS011;53703;50.326;19.122;2023-10-31T10:51:13;3.90;;;2.10;;
66800;SDS011;53703;50.326;19.122;2023-10-31T10:53:55;7.50;;;2.70;;
66800;SDS011;53703;50.326;19.122;2023-10-31T10:56:49;5.10;;;2.50;;
66800;SDS011;53703;50.326;19.122;2023-10-31T10:59:34;3.50;;;2.20;;
66800;SDS011;53703;50.326;19.122;2023-10-31T11:02:13;3.90;;;2.40;;
66800;SDS011;53703;50.326;19.122;2023-10-31T11:04:47;5.10;;;2.60;;
66800;SDS011;53703;50.326;19.122;2023-10-31T11:07:21;7.80;;;3.30;;
66800;SDS011;53703;50.326;19.122;2023-10-31T11:09:56;6.00;;;2.60;;
66800;SDS011;53703;50.326;19.122;2023-10-31T11:12:33;6.70;;;3.20;;
66800;SDS011;53703;50.326;19.122;2023-10-31T11:15:10;5.10;;;2.70;;
66800;SDS011;53703;50.326;19.122;2023-10-31T11:17:47;5.60;;;2.80;;
66800;SDS011;53703;50.326;19.122;2023-10-31T11:20:26;4.20;;;2.50;;
66800;SDS011;53703;50.326;19.122;2023-10-31T11:23:00;4.50;;;2.70;;
66800;SDS011;53703;50.326;19.122;2023-10-31T11:25:39;5.10;;;2.50;;
66800;SDS011;53703;50.326;19.122;2023-10-31T11:28:16;4.70;;;3.10;;
66800;SDS011;53703;50.326;19.122;2023-10-31T11:30:51;6.20;;;2.70;;
66800;SDS011;53703;50.326;19.122;2023-10-31T11:33:30;5.00;;;2.10;;
66800;SDS011;53703;50.326;19.122;2023-10-31T11:36:04;3.20;;;2.00;;
66800;SDS011;53703;50.326;19.122;2023-10-31T11:38:39;5.00;;;2.50;;
66800;SDS011;53703;50.326;19.122;2023-10-31T11:41:13;4.40;;;2.40;;
66800;SDS011;53703;50.326;19.122;2023-10-31T11:43:56;4.30;;;2.60;;
66800;SDS011;53703;50.326;19.122;2023-10-31T11:46:29;4.60;;;2.30;;
66800;SDS011;53703;50.326;19.122;2023-10-31T11:49:03;3.70;;;2.50;;
66800;SDS011;53703;50.326;19.122;2023-10-31T11:51:38;4.80;;;2.60;;
66800;SDS011;53703;50.326;19.122;2023-10-31T11:54:11;4.20;;;2.50;;
66800;SDS011;53703;50.326;19.122;2023-10-31T11:56:51;3.80;;;2.20;;
66800;SDS011;53703;50.326;19.122;2023-10-31T11:59:25;4.30;;;2.30;;
66800;SDS011;53703;50.326;19.122;2023-10-31T12:02:15;3.70;;;2.70;;
66800;SDS011;53703;50.326;19.122;2023-10-31T12:04:49;4.00;;;2.50;;
66800;SDS011;53703;50.326;19.122;2023-10-31T12:07:23;4.30;;;2.10;;
66800;SDS011;53703;50.326;19.122;2023-10-31T12:09:56;3.50;;;2.40;;
66800;SDS011;53703;50.326;19.122;2023-10-31T12:12:33;3.90;;;2.40;;
66800;SDS011;53703;50.326;19.122;2023-10-31T12:15:07;3.90;;;2.30;;
66800;SDS011;53703;50.326;19.122;2023-10-31T12:17:41;5.20;;;2.50;;
66800;SDS011;53703;50.326;19.122;2023-10-31T12:20:15;5.10;;;2.40;;
66800;SDS011;53703;50.326;19.122;2023-10-31T12:22:55;4.80;;;2.50;;
66800;SDS011;53703;50.326;19.122;2023-10-31T12:25:35;3.30;;;1.90;;
66800;SDS011;53703;50.326;19.122;2023-10-31T12:28:19;4.30;;;2.30;;
66800;SDS011;53703;50.326;19.122;2023-10-31T12:30:54;5.50;;;2.30;;
66800;SDS011;53703;50.326;19.122;2023-10-31T12:33:29;3.10;;;1.90;;
66800;SDS011;53703;50.326;19.122;2023-10-31T12:36:02;2.70;;;1.90;;
66800;SDS011;53703;50.326;19.122;2023-10-31T12:38:37;4.20;;;2.20;;
66800;SDS011;53703;50.326;19.122;2023-10-31T12:41:10;4.70;;;2.40;;
66800;SDS011;53703;50.326;19.122;2023-10-31T12:43:44;3.00;;;1.90;;
66800;SDS011;53703;50.326;19.122;2023-10-31T12:46:28;4.00;;;2.30;;
66800;SDS011;53703;50.326;19.122;2023-10-31T12:49:03;3.90;;;1.90;;
66800;SDS011;53703;50.326;19.122;2023-10-31T12:51:58;3.80;;;2.20;;
66800;SDS011;53703;50.326;19.122;2023-10-31T12:54:33;3.80;;;1.90;;
66800;SDS011;53703;50.326;19.122;2023-10-31T12:57:09;3.70;;;2.10;;
66800;SDS011;53703;50.326;19.122;2023-10-31T13:02:31;5.30;;;2.00;;
66800;SDS011;53703;50.326;19.122;2023-10-31T13:05:14;4.40;;;2.00;;
66800;SDS011;53703;50.326;19.122;2023-10-31T13:07:51;4.60;;;2.30;;
66800;SDS011;53703;50.326;19.122;2023-10-31T13:10:26;3.30;;;2.00;;
66800;SDS011;53703;50.326;19.122;2023-10-31T13:13:00;4.40;;;2.40;;
66800;SDS011;53703;50.326;19.122;2023-10-31T13:15:33;3.20;;;1.90;;
66800;SDS011;53703;50.326;19.122;2023-10-31T13:18:08;5.10;;;1.90;;
66800;SDS011;53703;50.326;19.122;2023-10-31T13:20:43;6.10;;;2.00;;
66800;SDS011;53703;50.326;19.122;2023-10-31T13:23:17;7.20;;;1.90;;
66800;SDS011;53703;50.326;19.122;2023-10-31T13:25:51;13.00;;;2.20;;
66800;SDS011;53703;50.326;19.122;2023-10-31T13:28:25;4.80;;;2.00;;
66800;SDS011;53703;50.326;19.122;2023-10-31T13:30:59;6.50;;;2.00;;
66800;SDS011;53703;50.326;19.122;2023-10-31T13:33:34;4.40;;;1.70;;
66800;SDS011;53703;50.326;19.122;2023-10-31T13:36:08;3.90;;;2.10;;
66800;SDS011;53703;50.326;19.122;2023-10-31T13:38:43;3.00;;;1.70;;
66800;SDS011;53703;50.326;19.122;2023-10-31T13:41:16;5.40;;;1.70;;
66800;SDS011;53703;50.326;19.122;2023-10-31T13:43:50;4.50;;;2.20;;
66800;SDS011;53703;50.326;19.122;2023-10-31T13:46:23;2.70;;;1.90;;
66800;SDS011;53703;50.326;19.122;2023-10-31T13:48:57;3.40;;;1.80;;
66800;SDS011;53703;50.326;19.122;2023-10-31T13:51:30;4.80;;;1.80;;
66800;SDS011;53703;50.326;19.122;2023-10-31T13:54:04;4.00;;;2.00;;
66800;SDS011;53703;50.326;19.122;2023-10-31T13:56:38;3.30;;;1.90;;
66800;SDS011;53703;50.326;19.122;2023-10-31T13:59:11;4.70;;;2.70;;
66800;SDS011;53703;50.326;19.122;2023-10-31T14:01:45;4.20;;;2.10;;
66800;SDS011;53703;50.326;19.122;2023-10-31T14:04:19;4.60;;;2.40;;
66800;SDS011;53703;50.326;19.122;2023-10-31T14:06:53;3.60;;;2.20;;
66800;SDS011;53703;50.326;19.122;2023-10-31T14:09:26;4.40;;;2.00;;
66800;SDS011;53703;50.326;19.122;2023-10-31T14:12:01;4.30;;;1.80;;
66800;SDS011;53703;50.326;19.122;2023-10-31T14:14:35;5.80;;;1.80;;
66800;SDS011;53703;50.326;19.122;2023-10-31T14:17:08;3.20;;;1.90;;
66800;SDS011;53703;50.326;19.122;2023-10-31T14:19:42;3.60;;;1.60;;
66800;SDS011;53703;50.326;19.122;2023-10-31T14:22:16;3.90;;;2.20;;
66800;SDS011;53703;50.326;19.122;2023-10-31T14:24:49;5.10;;;2.30;;
66800;SDS011;53703;50.326;19.122;2023-10-31T14:27:23;4.00;;;2.10;;
66800;SDS011;53703;50.326;19.122;2023-10-31T14:29:56;5.50;;;2.50;;
66800;SDS011;53703;50.326;19.122;2023-10-31T14:32:30;6.10;;;3.10;;
66800;SDS011;53703;50.326;19.122;2023-10-31T14:35:04;10.20;;;4.50;;
66800;SDS011;53703;50.326;19.122;2023-10-31T14:37:39;7.30;;;3.00;;
66800;SDS011;53703;50.326;19.122;2023-10-31T14:40:13;10.20;;;4.20;;
66800;SDS011;53703;50.326;19.122;2023-10-31T14:42:46;13.40;;;4.00;;
66800;SDS011;53703;50.326;19.122;2023-10-31T14:45:20;8.30;;;4.20;;
66800;SDS011;53703;50.326;19.122;2023-10-31T14:47:53;10.50;;;4.40;;
66800;SDS011;53703;50.326;19.122;2023-10-31T14:50:27;8.50;;;3.80;;
66800;SDS011;53703;50.326;19.122;2023-10-31T14:53:00;9.40;;;4.20;;
66800;SDS011;53703;50.326;19.122;2023-10-31T14:55:34;10.80;;;4.20;;
66800;SDS011;53703;50.326;19.122;2023-10-31T14:58:07;10.20;;;3.70;;
66800;SDS011;53703;50.326;19.122;2023-10-31T15:00:41;10.00;;;4.40;;
66800;SDS011;53703;50.326;19.122;2023-10-31T15:03:14;13.20;;;4.90;;
66800;SDS011;53703;50.326;19.122;2023-10-31T15:05:48;11.50;;;3.60;;
66800;SDS011;53703;50.326;19.122;2023-10-31T15:08:21;12.50;;;3.70;;
66800;SDS011;53703;50.326;19.122;2023-10-31T15:10:55;8.00;;;4.00;;
66800;SDS011;53703;50.326;19.122;2023-10-31T15:13:28;12.70;;;3.70;;
66800;SDS011;53703;50.326;19.122;2023-10-31T15:16:02;8.80;;;4.00;;
66800;SDS011;53703;50.326;19.122;2023-10-31T15:18:36;11.90;;;4.20;;
66800;SDS011;53703;50.326;19.122;2023-10-31T15:21:12;10.20;;;4.20;;